Time;durP1;ratioP1;P1;durP2;ratioP2;P2;SDS_P1;SDS_P2;PMS_P1;PMS_P2;Temp;Humidity;BMP_temperature;BMP_pressure;BME280_temperature;BME280_humidity;BME280_pressure;Samples;Min_cycle;Max_cycle;Signal;HPM_P1;HPM_P2
2023/10/15 00:00:46;;;;;;;1.60;0.68;;;8.00;99.90;;;;;;5051338;28;20040;-88
2023/10/15 00:03:12;;;;;;;2.92;0.82;;;8.00;99.90;;;;;;5062824;28;20028;-88
2023/10/15 00:05:38;;;;;;;2.65;0.90;;;7.90;99.90;;;;;;5064557;28;20036;-86
2023/10/15 00:08:04;;;;;;;2.47;0.90;;;7.90;99.90;;;;;;5050069;28;20456;-87
2023/10/15 00:10:34;;;;;;;1.73;0.70;;;7.80;99.90;;;;;;5062615;28;20970;-88
2023/10/15 00:13:00;;;;;;;2.35;0.90;;;7.80;99.90;;;;;;5057599;28;20036;-88
2023/10/15 00:15:29;;;;;;;4.55;0.77;;;7.80;99.90;;;;;;5050317;28;20421;-87
2023/10/15 00:18:03;;;;;;;3.78;1.27;;;7.70;99.90;;;;;;5062798;28;20041;-87
2023/10/15 00:20:34;;;;;;;3.45;0.95;;;7.70;99.90;;;;;;5066180;28;20050;-87
2023/10/15 00:23:04;;;;;;;5.47;1.02;;;7.60;99.90;;;;;;5055553;28;20116;-87
2023/10/15 00:25:47;;;;;;;2.72;1.15;;;7.60;99.90;;;;;;5057711;28;20055;-87
2023/10/15 00:28:12;;;;;;;4.35;1.23;;;7.60;99.90;;;;;;5059992;28;20040;-87
2023/10/15 00:30:39;;;;;;;2.78;0.80;;;7.70;99.90;;;;;;5049083;28;20036;-87
2023/10/15 00:33:11;;;;;;;1.67;0.60;;;7.60;99.90;;;;;;5055074;28;20040;-89
2023/10/15 00:35:37;;;;;;;3.65;1.00;;;7.70;99.90;;;;;;5063430;28;20044;-87
2023/10/15 00:38:16;;;;;;;1.40;0.70;;;7.60;99.90;;;;;;5066625;28;20056;-87
2023/10/15 00:40:42;;;;;;;4.55;0.90;;;7.60;99.90;;;;;;5059394;28;20055;-87
2023/10/15 00:43:08;;;;;;;3.10;0.90;;;7.60;99.90;;;;;;5048799;28;20497;-87
2023/10/15 00:45:39;;;;;;;2.47;0.90;;;7.60;99.90;;;;;;5043771;28;20036;-87
2023/10/15 00:50:41;;;;;;;1.65;0.60;;;7.50;99.90;;;;;;5071065;28;20045;-87
2023/10/15 00:53:21;;;;;;;1.63;0.80;;;7.50;99.90;;;;;;5065257;28;20119;-86
2023/10/15 00:56:04;;;;;;;2.47;1.10;;;7.50;99.90;;;;;;5064007;28;20043;-87
2023/10/15 00:58:53;;;;;;;1.60;1.00;;;7.50;99.90;;;;;;5072487;28;20119;-87
2023/10/15 01:03:48;;;;;;;3.40;1.50;;;7.50;99.90;;;;;;5063837;28;20129;-86
2023/10/15 01:06:35;;;;;;;3.42;1.50;;;7.50;99.90;;;;;;5048723;28;20115;-86
2023/10/15 01:09:09;;;;;;;3.35;1.30;;;7.50;99.90;;;;;;5044121;28;20081;-86
2023/10/15 01:11:44;;;;;;;;;;;7.50;99.90;;;;;;5066128;28;20036;-87
2023/10/15 01:14:13;;;;;;;3.75;1.40;;;7.60;99.90;;;;;;5073044;28;20297;-86
2023/10/15 01:16:40;;;;;;;1.58;1.05;;;7.50;99.90;;;;;;5044134;28;20048;-87
2023/10/15 01:19:16;;;;;;;3.88;1.45;;;7.50;99.90;;;;;;5064609;28;20033;-87
2023/10/15 01:21:56;;;;;;;2.97;0.93;;;7.50;99.90;;;;;;5061598;28;20529;-87
2023/10/15 01:24:25;;;;;;;2.58;1.13;;;7.60;99.90;;;;;;5053814;28;20380;-87
2023/10/15 01:27:03;;;;;;;3.55;1.10;;;7.60;99.90;;;;;;5070132;28;20040;-87
2023/10/15 01:29:33;;;;;;;2.30;0.95;;;7.60;99.90;;;;;;5049184;28;20445;-87
2023/10/15 01:32:03;;;;;;;2.67;1.15;;;7.60;99.90;;;;;;5049986;28;20499;-87
2023/10/15 01:34:37;;;;;;;4.95;1.27;;;7.60;99.90;;;;;;5097000;22;20075;-84
2023/10/15 01:37:21;;;;;;;2.40;1.10;;;7.60;99.90;;;;;;5055374;28;20044;-83
2023/10/15 01:39:51;;;;;;;2.67;1.00;;;7.60;99.90;;;;;;5050230;28;20494;-83
2023/10/15 01:45:13;;;;;;;2.75;0.77;;;7.60;99.90;;;;;;5077775;28;20044;-84
2023/10/15 01:50:31;;;;;;;1.25;0.80;;;7.60;99.90;;;;;;5076565;28;20123;-84
2023/10/15 01:53:06;;;;;;;3.70;0.80;;;7.60;99.90;;;;;;5073218;28;20588;-84
2023/10/15 01:56:16;;;;;;;3.45;0.90;;;7.60;99.90;;;;;;5079689;28;20495;-84
2023/10/15 01:58:57;;;;;;;2.88;1.00;;;7.60;99.90;;;;;;5037307;28;20086;-84
2023/10/15 02:01:49;;;;;;;2.40;1.23;;;7.60;99.90;;;;;;5051837;28;20049;-84
2023/10/15 02:04:26;;;;;;;3.10;1.15;;;7.50;99.90;;;;;;5050748;28;20050;-83
2023/10/15 02:07:04;;;;;;;3.08;1.02;;;7.40;99.90;;;;;;5060193;28;20487;-84
2023/10/15 02:09:38;;;;;;;4.22;1.33;;;7.30;99.90;;;;;;5059064;28;20067;-84
2023/10/15 02:12:07;;;;;;;3.38;1.05;;;7.40;99.90;;;;;;5068624;28;20079;-84
2023/10/15 02:14:41;;;;;;;1.38;0.70;;;7.40;99.90;;;;;;5071016;28;20075;-84
2023/10/15 02:17:18;;;;;;;3.92;1.20;;;7.30;99.90;;;;;;5071505;28;20116;-83
2023/10/15 02:19:47;;;;;;;4.75;0.93;;;7.30;99.90;;;;;;5046937;28;20135;-83
2023/10/15 02:22:21;;;;;;;3.78;0.80;;;7.20;99.90;;;;;;5049352;28;20028;-83
2023/10/15 02:24:47;;;;;;;1.17;0.80;;;7.20;99.90;;;;;;5073008;28;20036;-84
2023/10/15 02:27:30;;;;;;;1.67;0.75;;;7.20;99.90;;;;;;5063466;28;20406;-84
2023/10/15 02:29:55;;;;;;;1.98;0.80;;;7.10;99.90;;;;;;5080565;28;20118;-84
2023/10/15 02:34:54;;;;;;;3.58;0.80;;;7.10;99.90;;;;;;5068702;28;20045;-84
2023/10/15 02:37:47;;;;;;;3.72;0.80;;;7.00;99.90;;;;;;5066458;28;20544;-84
2023/10/15 02:40:22;;;;;;;2.85;0.68;;;6.90;99.90;;;;;;5061970;28;20035;-84
2023/10/15 02:42:53;;;;;;;1.45;0.80;;;6.90;99.90;;;;;;5061687;28;20047;-84
2023/10/15 02:45:23;;;;;;;2.67;1.25;;;6.80;99.90;;;;;;5063554;28;20451;-83
2023/10/15 02:47:55;;;;;;;1.88;0.80;;;6.80;99.90;;;;;;5057909;28;20036;-84
2023/10/15 02:50:26;;;;;;;2.75;0.98;;;6.80;99.90;;;;;;5051786;28;20040;-84
2023/10/15 02:53:04;;;;;;;1.13;0.57;;;6.70;99.90;;;;;;5061701;28;20379;-84
2023/10/15 02:55:36;;;;;;;1.55;0.70;;;6.70;99.90;;;;;;5070032;28;20048;-84
2023/10/15 02:58:02;;;;;;;2.17;0.65;;;6.60;99.90;;;;;;5074528;28;20035;-84
2023/10/15 03:00:34;;;;;;;1.60;1.00;;;6.60;99.90;;;;;;5071564;28;20055;-84
2023/10/15 03:03:09;;;;;;;2.95;1.08;;;6.50;99.90;;;;;;5059873;28;20035;-84
2023/10/15 03:05:46;;;;;;;1.90;0.85;;;6.50;99.90;;;;;;5068206;28;20036;-85
2023/10/15 03:08:22;;;;;;;0.98;0.70;;;6.50;99.90;;;;;;5060700;28;20124;-84
2023/10/15 03:11:07;;;;;;;2.08;0.90;;;6.40;99.90;;;;;;5058664;28;20043;-84
2023/10/15 03:13:44;;;;;;;2.95;0.60;;;6.40;99.90;;;;;;5079162;28;20040;-83
2023/10/15 03:16:13;;;;;;;1.20;0.65;;;6.30;99.90;;;;;;5056613;28;20119;-84
2023/10/15 03:18:44;;;;;;;3.22;0.65;;;6.40;99.90;;;;;;5062304;28;20125;-83
2023/10/15 03:21:16;;;;;;;3.92;1.10;;;6.30;99.90;;;;;;5052173;28;20036;-83
2023/10/15 03:23:46;;;;;;;1.67;0.77;;;6.30;99.90;;;;;;5075712;28;20042;-83
2023/10/15 03:26:19;;;;;;;0.93;0.77;;;6.20;99.90;;;;;;5050297;28;20041;-83
2023/10/15 03:28:51;;;;;;;2.53;0.90;;;6.20;99.90;;;;;;5071337;28;20126;-83
2023/10/15 03:31:31;;;;;;;2.70;1.08;;;6.20;99.90;;;;;;5065441;28;20068;-83
2023/10/15 03:42:41;;;;;;;1.30;0.75;;;6.10;99.90;;;;;;5065551;28;20576;-84
2023/10/15 03:44:47;;;;;;;1.38;0.80;;;6.10;99.90;;;;;;5053546;28;20383;-83
2023/10/15 03:47:22;;;;;;;2.15;1.10;;;6.10;99.90;;;;;;5061179;28;20040;-84
2023/10/15 03:49:55;;;;;;;2.58;1.20;;;6.20;99.90;;;;;;5073398;28;20041;-83
2023/10/15 03:52:21;;;;;;;3.05;0.85;;;6.10;99.90;;;;;;5052637;28;20081;-84
2023/10/15 03:54:49;;;;;;;3.28;1.15;;;6.20;99.90;;;;;;5051032;28;20115;-84
2023/10/15 03:57:28;;;;;;;5.22;1.17;;;6.10;99.90;;;;;;5057449;28;20538;-83
2023/10/15 03:59:57;;;;;;;2.85;0.90;;;6.10;99.90;;;;;;5055155;28;20041;-84
2023/10/15 04:02:39;;;;;;;1.10;0.80;;;6.10;99.90;;;;;;5046765;28;20037;-84
2023/10/15 04:05:14;;;;;;;3.30;1.02;;;6.20;99.90;;;;;;5039781;28;20033;-84
2023/10/15 04:07:53;;;;;;;2.45;1.08;;;6.10;99.90;;;;;;5048416;28;20120;-84
2023/10/15 04:10:23;;;;;;;2.08;0.93;;;6.00;99.90;;;;;;5054915;28;20028;-84
2023/10/15 04:12:50;;;;;;;2.10;1.00;;;6.00;99.90;;;;;;5054680;28;20032;-84
2023/10/15 04:15:16;;;;;;;1.83;0.63;;;5.90;99.90;;;;;;5046050;28;20043;-84
2023/10/15 04:17:49;;;;;;;2.58;0.88;;;5.90;99.90;;;;;;5040923;28;20051;-84
2023/10/15 04:20:15;;;;;;;1.48;0.90;;;5.90;99.90;;;;;;5051068;28;20093;-83
2023/10/15 04:22:46;;;;;;;2.30;1.00;;;5.90;99.90;;;;;;5066735;28;20036;-84
2023/10/15 04:25:23;;;;;;;2.15;0.90;;;5.80;99.90;;;;;;5056562;28;20559;-83
2023/10/15 04:27:55;;;;;;;3.10;1.20;;;5.80;99.90;;;;;;5054117;28;20044;-83
2023/10/15 04:30:22;;;;;;;1.67;0.80;;;5.80;99.90;;;;;;5046508;28;20123;-84
2023/10/15 04:32:48;;;;;;;1.30;0.77;;;5.80;99.90;;;;;;5065378;28;20044;-83
2023/10/15 04:35:18;;;;;;;3.40;1.20;;;5.80;99.90;;;;;;5071317;28;20047;-83
2023/10/15 04:37:53;;;;;;;2.60;0.85;;;5.70;99.90;;;;;;5067712;28;20083;-83
2023/10/15 04:40:27;;;;;;;1.00;0.90;;;5.70;99.90;;;;;;5076656;28;20042;-83
2023/10/15 04:42:59;;;;;;;1.90;0.90;;;5.70;99.90;;;;;;5068241;28;20063;-83
2023/10/15 04:48:02;;;;;;;2.88;1.00;;;5.60;99.90;;;;;;5062186;28;20039;-84
2023/10/15 04:50:35;;;;;;;3.72;1.20;;;5.60;99.90;;;;;;5072067;28;20043;-83
2023/10/15 04:53:13;;;;;;;2.90;0.82;;;5.60;99.90;;;;;;5053389;28;20057;-84
2023/10/15 04:55:50;;;;;;;3.22;1.30;;;5.60;99.90;;;;;;5049403;28;20041;-83
2023/10/15 04:58:17;;;;;;;1.17;0.70;;;5.60;99.90;;;;;;5077418;28;20067;-84
2023/10/15 05:00:46;;;;;;;1.88;1.10;;;5.60;99.90;;;;;;5068848;28;20053;-83
2023/10/15 05:03:18;;;;;;;2.03;1.00;;;5.60;99.90;;;;;;5066652;28;20032;-84
2023/10/15 05:05:47;;;;;;;3.83;0.80;;;5.60;99.90;;;;;;5058282;28;20391;-84
2023/10/15 05:08:17;;;;;;;2.90;1.10;;;5.70;99.90;;;;;;5049909;28;20116;-84
2023/10/15 05:10:50;;;;;;;2.40;1.20;;;5.80;99.90;;;;;;5055762;28;20036;-83
2023/10/15 05:13:16;;;;;;;2.92;1.23;;;5.90;99.90;;;;;;5056931;28;20054;-84
2023/10/15 05:15:49;;;;;;;2.50;1.00;;;5.90;99.90;;;;;;5060153;28;20075;-84
2023/10/15 05:18:18;;;;;;;4.87;1.50;;;6.00;99.90;;;;;;5050974;28;20055;-84
2023/10/15 05:20:48;;;;;;;5.18;1.42;;;6.00;99.90;;;;;;5062222;28;20296;-84
2023/10/15 05:23:23;;;;;;;3.10;1.02;;;6.10;99.90;;;;;;5047026;28;20068;-83
2023/10/15 05:25:49;;;;;;;2.60;0.90;;;6.20;99.90;;;;;;5061989;28;20049;-83
2023/10/15 05:28:15;;;;;;;3.00;1.02;;;6.20;99.90;;;;;;5065163;28;20466;-84
2023/10/15 05:30:46;;;;;;;2.75;1.10;;;6.30;99.90;;;;;;5073878;28;20557;-83
2023/10/15 05:33:28;;;;;;;5.63;0.98;;;6.30;99.90;;;;;;5051530;28;20048;-84
2023/10/15 05:35:56;;;;;;;1.52;0.90;;;6.30;99.90;;;;;;5053018;28;20048;-84
2023/10/15 05:38:29;;;;;;;4.40;1.02;;;6.40;99.90;;;;;;5053578;28;20534;-84
2023/10/15 05:40:58;;;;;;;4.22;0.90;;;6.40;99.90;;;;;;5050104;28;20512;-84
2023/10/15 05:43:27;;;;;;;2.33;0.70;;;6.50;99.90;;;;;;5058688;28;20115;-84
2023/10/15 05:45:53;;;;;;;1.52;0.95;;;6.50;99.90;;;;;;5061439;28;20166;-84
2023/10/15 05:48:21;;;;;;;2.85;1.08;;;6.50;99.90;;;;;;5060179;28;20044;-84
2023/10/15 05:50:50;;;;;;;2.33;0.70;;;6.50;99.90;;;;;;5075445;28;20047;-84
2023/10/15 05:53:24;;;;;;;2.75;0.65;;;6.60;99.90;;;;;;5054401;28;20036;-84
2023/10/15 05:55:50;;;;;;;;;;;6.60;99.90;;;;;;5077396;28;20053;-86
2023/10/15 05:58:27;;;;;;;2.38;0.70;;;6.60;99.90;;;;;;5058119;28;19923;-84
2023/10/15 06:00:58;;;;;;;1.85;0.55;;;6.70;99.90;;;;;;5059414;28;20052;-84
2023/10/15 06:03:24;;;;;;;2.47;0.65;;;6.70;99.90;;;;;;5050315;28;20032;-86
2023/10/15 06:05:59;;;;;;;2.08;1.00;;;6.70;99.90;;;;;;5064195;28;20036;-86
2023/10/15 06:08:29;;;;;;;5.38;1.00;;;6.60;99.90;;;;;;5089761;28;20047;-85
2023/10/15 06:11:08;;;;;;;2.22;0.90;;;6.70;99.90;;;;;;5061142;28;20040;-86
2023/10/15 06:13:35;;;;;;;2.50;0.77;;;6.70;99.90;;;;;;5052199;28;20075;-85
2023/10/15 06:16:04;;;;;;;2.05;0.70;;;6.70;99.90;;;;;;5063003;28;20051;-85
2023/10/15 06:18:38;;;;;;;2.80;0.47;;;6.70;99.90;;;;;;5052622;28;20040;-85
2023/10/15 06:21:14;;;;;;;3.85;0.80;;;6.70;99.90;;;;;;5065754;28;20044;-85
2023/10/15 06:24:00;;;;;;;3.08;0.82;;;6.80;99.90;;;;;;5083318;28;20553;-85
2023/10/15 06:26:37;;;;;;;1.00;0.80;;;6.70;99.90;;;;;;5050446;28;20067;-85
2023/10/15 06:29:03;;;;;;;3.35;0.70;;;6.80;99.90;;;;;;5076173;28;20035;-85
2023/10/15 06:31:36;;;;;;;2.33;0.60;;;6.80;99.90;;;;;;5056620;28;20513;-86
2023/10/15 06:34:06;;;;;;;3.47;0.80;;;6.80;99.90;;;;;;5071630;28;20589;-85
2023/10/15 06:36:37;;;;;;;2.92;0.60;;;6.80;99.90;;;;;;5076326;28;20048;-85
2023/10/15 06:39:15;;;;;;;2.45;0.65;;;6.80;99.90;;;;;;5064952;28;20106;-85
2023/10/15 06:41:57;;;;;;;1.95;0.80;;;6.80;99.90;;;;;;5060307;28;20060;-86
2023/10/15 06:47:37;;;;;;;2.25;0.90;;;6.80;99.90;;;;;;5058435;28;20073;-85
2023/10/15 06:50:19;;;;;;;2.30;0.80;;;6.80;99.90;;;;;;5046322;28;20688;-86
2023/10/15 06:53:06;;;;;;;3.25;0.93;;;6.80;99.90;;;;;;5061971;28;20474;-85
2023/10/15 06:55:35;;;;;;;2.40;0.63;;;6.80;99.90;;;;;;5069524;28;20032;-86
2023/10/15 07:01:21;;;;;;;1.50;0.60;;;6.80;99.90;;;;;;5054214;28;20743;-86
2023/10/15 07:04:20;;;;;;;1.65;0.47;;;6.80;99.90;;;;;;5050703;28;20032;-83
2023/10/15 07:06:51;;;;;;;0.60;0.50;;;6.80;99.90;;;;;;5063129;28;20044;-86
2023/10/15 07:09:23;;;;;;;0.80;0.50;;;6.90;99.90;;;;;;5052792;28;20671;-85
2023/10/15 07:11:49;;;;;;;2.97;1.00;;;6.80;99.90;;;;;;5045268;28;20043;-83
2023/10/15 07:14:15;;;;;;;1.75;0.40;;;6.80;99.90;;;;;;5042204;28;20036;-84
2023/10/15 07:17:02;;;;;;;;;;;;;;;;;;;;;
2023/10/15 07:19:37;;;;;;;1.20;0.60;;;6.80;99.90;;;;;;5061643;28;20075;-85
2023/10/15 07:22:04;;;;;;;3.17;0.80;;;6.80;99.90;;;;;;5063512;28;20044;-83
2023/10/15 07:24:33;;;;;;;1.25;0.68;;;6.80;99.90;;;;;;5051588;28;20410;-83
2023/10/15 07:27:04;;;;;;;1.45;0.70;;;6.80;99.90;;;;;;5066730;28;20903;-82
2023/10/15 07:29:33;;;;;;;0.82;0.70;;;6.80;99.90;;;;;;5072123;28;20418;-82
2023/10/15 07:32:03;;;;;;;1.67;0.50;;;6.80;99.90;;;;;;5047576;28;20043;-82
2023/10/15 07:34:32;;;;;;;1.20;0.60;;;6.80;99.90;;;;;;5088383;22;20044;-25
2023/10/15 07:36:57;;;;;;;2.55;0.60;;;6.80;99.90;;;;;;5081566;28;20548;-25
2023/10/15 07:39:25;;;;;;;3.47;1.25;;;6.80;99.90;;;;;;5069971;28;20036;-25
2023/10/15 07:41:51;;;;;;;1.50;0.38;;;6.90;99.90;;;;;;5078085;28;20691;-25
2023/10/15 07:44:18;;;;;;;1.15;0.50;;;6.90;99.90;;;;;;5078172;28;20115;-26
2023/10/15 07:46:43;;;;;;;0.90;0.50;;;7.00;99.90;;;;;;5075517;28;20090;-25
2023/10/15 07:49:12;;;;;;;2.75;0.90;;;7.10;99.90;;;;;;5076537;28;20402;-25
2023/10/15 07:51:41;;;;;;;1.05;0.60;;;7.20;99.90;;;;;;5085271;28;20071;-25
2023/10/15 07:54:07;;;;;;;1.50;0.55;;;7.20;99.90;;;;;;5088505;28;20097;-25
2023/10/15 07:56:34;;;;;;;1.42;0.45;;;7.20;99.90;;;;;;5076523;28;20044;-25
2023/10/15 07:59:04;;;;;;;2.60;0.57;;;7.20;99.90;;;;;;5072087;28;20041;-25
2023/10/15 08:01:30;;;;;;;2.28;0.68;;;7.10;99.90;;;;;;5082341;28;20044;-25
2023/10/15 08:03:59;;;;;;;2.92;0.82;;;7.10;99.90;;;;;;5084180;28;20114;-25
2023/10/15 08:06:25;;;;;;;1.70;0.65;;;7.10;99.90;;;;;;5081884;28;20032;-25
2023/10/15 08:08:51;;;;;;;1.27;0.73;;;7.00;99.90;;;;;;5075602;28;20083;-25
2023/10/15 08:11:16;;;;;;;1.45;0.73;;;7.00;99.90;;;;;;5080547;28;20124;-25
2023/10/15 08:13:42;;;;;;;1.50;0.68;;;7.00;99.90;;;;;;5083200;28;20040;-26
2023/10/15 08:16:08;;;;;;;3.40;0.70;;;7.10;99.90;;;;;;5054118;28;20059;-25
2023/10/15 08:18:34;;;;;;;1.50;0.70;;;7.20;99.90;;;;;;5080229;28;20051;-25
2023/10/15 08:20:59;;;;;;;3.30;0.77;;;7.30;99.90;;;;;;5079848;28;20032;-25
2023/10/15 08:23:26;;;;;;;2.80;0.52;;;7.40;99.90;;;;;;5074263;28;20037;-25
2023/10/15 08:25:53;;;;;;;1.67;0.50;;;7.40;99.90;;;;;;5055774;28;20041;-25
2023/10/15 08:28:19;;;;;;;1.98;0.80;;;7.50;99.90;;;;;;5085945;28;20479;-25
2023/10/15 08:30:44;;;;;;;1.75;0.52;;;7.60;99.90;;;;;;5092029;28;20044;-25
2023/10/15 08:33:13;;;;;;;2.95;0.80;;;7.80;99.90;;;;;;5085393;28;20042;-25
2023/10/15 08:35:40;;;;;;;1.92;0.80;;;7.90;99.90;;;;;;5086569;28;20525;-25
2023/10/15 08:38:07;;;;;;;2.60;0.90;;;8.30;99.90;;;;;;5073572;28;20049;-25
2023/10/15 08:40:40;;;;;;;1.63;0.90;;;8.90;99.90;;;;;;5071764;28;20041;-25
2023/10/15 08:43:20;;;;;;;2.05;0.60;;;9.60;99.90;;;;;;5071702;28;20511;-26
2023/10/15 08:45:47;;;;;;;2.47;1.15;;;10.20;99.90;;;;;;5066877;28;20075;-26
2023/10/15 08:48:15;;;;;;;2.58;0.80;;;10.80;99.90;;;;;;5091985;28;20129;-26
2023/10/15 08:50:42;;;;;;;2.65;0.75;;;11.20;99.90;;;;;;5084474;28;20083;-26
2023/10/15 08:53:08;;;;;;;2.47;1.23;;;11.60;99.90;;;;;;5075563;28;20064;-26
2023/10/15 08:55:38;;;;;;;3.78;0.85;;;11.80;99.90;;;;;;5051645;28;20069;-26
2023/10/15 08:58:06;;;;;;;1.17;0.63;;;12.00;99.90;;;;;;5078411;28;20119;-26
2023/10/15 09:00:32;;;;;;;4.45;0.95;;;12.20;99.90;;;;;;5075133;28;20043;-26
2023/10/15 09:03:02;;;;;;;3.80;0.90;;;12.40;99.90;;;;;;5081616;28;20032;-26
2023/10/15 09:05:37;;;;;;;2.58;0.60;;;12.60;99.90;;;;;;5079814;28;20048;-26
2023/10/15 09:08:07;;;;;;;2.92;0.80;;;13.20;99.90;;;;;;5088046;28;20040;-26
2023/10/15 09:10:42;;;;;;;1.77;0.88;;;12.90;99.90;;;;;;5086992;28;20062;-26
2023/10/15 09:13:14;;;;;;;3.05;1.00;;;12.60;99.90;;;;;;5068513;28;20036;-26
2023/10/15 09:15:46;;;;;;;2.88;1.20;;;12.50;99.90;;;;;;5080125;28;20076;-26
2023/10/15 09:18:15;;;;;;;7.72;1.70;;;12.50;99.90;;;;;;5083455;28;20085;-26
2023/10/15 09:20:43;;;;;;;4.90;1.65;;;12.10;99.90;;;;;;5091347;28;20479;-26
2023/10/15 09:23:09;;;;;;;2.95;1.30;;;11.90;99.90;;;;;;5083846;28;20040;-26
2023/10/15 09:25:36;;;;;;;3.10;1.38;;;11.80;99.90;;;;;;5074901;28;20048;-26
2023/10/15 09:28:02;;;;;;;2.40;1.00;;;12.10;99.90;;;;;;5078450;28;20115;-26
2023/10/15 09:30:32;;;;;;;1.80;0.70;;;12.40;99.90;;;;;;5091271;28;20082;-26
2023/10/15 09:32:58;;;;;;;3.40;0.80;;;12.60;99.90;;;;;;5074871;28;20036;-26
2023/10/15 09:35:24;;;;;;;2.78;0.98;;;12.60;99.90;;;;;;5077348;28;20028;-26
2023/10/15 09:37:50;;;;;;;2.58;1.00;;;12.80;99.90;;;;;;5083771;28;20068;-26
2023/10/15 09:40:24;;;;;;;3.53;0.90;;;13.10;99.90;;;;;;5092377;28;20039;-26
2023/10/15 09:42:53;;;;;;;4.22;0.82;;;13.00;99.90;;;;;;5073653;28;20032;-27
2023/10/15 09:45:23;;;;;;;3.30;1.13;;;12.70;99.90;;;;;;5069304;28;20461;-27
2023/10/15 09:47:57;;;;;;;3.00;0.90;;;13.00;99.90;;;;;;5085474;28;20040;-27
2023/10/15 09:50:38;;;;;;;;;;;13.50;99.90;;;;;;5083776;28;20043;-27
2023/10/15 09:53:10;;;;;;;3.10;0.90;;;13.60;99.90;;;;;;5091242;28;19920;-28
2023/10/15 09:55:38;;;;;;;2.07;0.70;;;13.90;99.90;;;;;;5081845;28;20177;-28
2023/10/15 09:58:04;;;;;;;3.42;0.90;;;14.10;99.90;;;;;;5080588;28;20055;-27
2023/10/15 10:03:49;;;;;;;3.38;0.82;;;14.90;99.90;;;;;;5072633;28;20087;-28
2023/10/15 10:06:24;;;;;;;2.45;0.85;;;15.10;99.90;;;;;;5085039;28;20038;-28
2023/10/15 10:09:28;;;;;;;5.13;1.00;;;15.20;99.90;;;;;;5082774;28;20047;-27
2023/10/15 10:12:18;;;;;;;4.68;1.27;;;15.20;99.90;;;;;;5076672;28;20044;-27
2023/10/15 10:15:05;;;;;;;5.32;0.88;;;14.90;99.90;;;;;;5082539;28;20051;-27
2023/10/15 10:17:32;;;;;;;3.03;1.02;;;14.60;99.90;;;;;;5084445;28;20066;-27
2023/10/15 10:20:01;;;;;;;3.97;1.20;;;14.70;99.90;;;;;;5081267;28;20179;-27
2023/10/15 10:22:27;;;;;;;4.25;0.90;;;14.40;99.90;;;;;;5080376;28;20408;-27
2023/10/15 10:24:54;;;;;;;2.80;1.08;;;13.90;99.90;;;;;;5084388;28;20031;-28
2023/10/15 10:27:20;;;;;;;2.35;1.02;;;13.80;99.90;;;;;;5087241;28;20161;-27
2023/10/15 10:30:33;;;;;;;5.82;2.80;;;13.60;99.90;;;;;;5081872;28;20040;-27
2023/10/15 10:33:04;;;;;;;4.82;1.52;;;13.40;99.90;;;;;;5066792;28;20130;-28
2023/10/15 10:35:46;;;;;;;4.13;1.42;;;13.50;99.90;;;;;;5086108;28;20534;-27
2023/10/15 10:38:18;;;;;;;3.03;0.98;;;13.30;99.90;;;;;;5084463;28;20047;-28
2023/10/15 10:40:49;;;;;;;3.67;0.82;;;13.20;99.90;;;;;;5088248;28;20028;-27
2023/10/15 10:43:27;;;;;;;5.25;1.60;;;13.00;99.90;;;;;;5067067;28;20036;-27
2023/10/15 10:46:00;;;;;;;3.90;0.82;;;12.50;99.90;;;;;;5085472;28;20068;-27
2023/10/15 10:48:37;;;;;;;4.72;1.23;;;12.20;99.90;;;;;;5081103;28;20044;-27
2023/10/15 10:51:21;;;;;;;2.53;1.08;;;12.00;99.90;;;;;;5071408;28;20054;-27
2023/10/15 10:53:56;;;;;;;4.90;0.90;;;11.70;99.90;;;;;;5068858;28;20079;-28
2023/10/15 10:56:22;;;;;;;3.25;0.90;;;11.60;99.90;;;;;;5081488;28;20032;-27
2023/10/15 10:58:52;;;;;;;3.15;0.70;;;11.30;99.90;;;;;;5061958;28;20045;-28
2023/10/15 11:01:19;;;;;;;2.38;0.65;;;11.20;99.90;;;;;;5082601;28;20033;-27
2023/10/15 11:03:47;;;;;;;2.10;0.68;;;11.20;99.90;;;;;;5084952;28;20047;-27
2023/10/15 11:06:15;;;;;;;2.63;0.70;;;11.20;99.90;;;;;;5087002;28;20577;-27
2023/10/15 11:08:41;;;;;;;2.25;0.73;;;11.20;99.90;;;;;;5076434;28;20403;-27
2023/10/15 11:11:09;;;;;;;1.33;0.63;;;11.20;99.90;;;;;;5076391;28;20143;-27
2023/10/15 11:13:34;;;;;;;3.35;1.38;;;11.20;99.90;;;;;;5073002;28;20437;-28
2023/10/15 11:16:00;;;;;;;4.45;1.05;;;11.00;99.90;;;;;;5085409;28;20062;-27
2023/10/15 11:18:26;;;;;;;1.92;0.55;;;11.00;99.90;;;;;;5088806;28;20634;-27
2023/10/15 11:20:52;;;;;;;2.03;1.00;;;10.90;99.90;;;;;;5086583;28;20501;-27
2023/10/15 11:23:19;;;;;;;2.97;0.60;;;10.80;99.90;;;;;;5094341;28;20032;-27
2023/10/15 11:25:45;;;;;;;1.52;0.50;;;10.80;99.90;;;;;;5069699;28;20090;-27
2023/10/15 11:28:12;;;;;;;1.77;0.80;;;10.90;99.90;;;;;;5074750;28;20513;-27
2023/10/15 11:30:44;;;;;;;1.17;0.60;;;11.00;99.90;;;;;;5077224;28;20051;-27
2023/10/15 11:33:10;;;;;;;1.23;0.45;;;11.20;99.90;;;;;;5070478;28;20040;-27
2023/10/15 11:35:37;;;;;;;1.40;0.40;;;11.40;99.90;;;;;;5081796;28;20028;-27
2023/10/15 11:38:10;;;;;;;1.50;0.52;;;11.50;99.90;;;;;;5069761;28;20071;-27
2023/10/15 11:40:37;;;;;;;1.60;0.68;;;11.70;99.90;;;;;;5074808;28;20040;-27
2023/10/15 11:43:04;;;;;;;2.33;0.50;;;11.90;99.90;;;;;;5075744;28;20040;-28
2023/10/15 11:45:30;;;;;;;2.60;0.77;;;12.10;99.90;;;;;;5071560;28;20056;-27
2023/10/15 11:47:56;;;;;;;2.42;0.98;;;12.00;99.90;;;;;;5067290;28;20051;-27
2023/10/15 11:50:26;;;;;;;3.03;1.10;;;12.00;99.90;;;;;;5083385;28;20070;-27
2023/10/15 11:52:54;;;;;;;2.95;0.90;;;12.00;99.90;;;;;;5069994;28;20432;-27
2023/10/15 11:55:21;;;;;;;3.78;0.65;;;11.90;99.90;;;;;;5085985;28;20043;-27
2023/10/15 11:57:50;;;;;;;3.58;0.93;;;11.90;99.90;;;;;;5089955;28;20043;-27
2023/10/15 12:00:32;;;;;;;2.67;0.80;;;12.10;99.90;;;;;;5091833;28;20395;-27
2023/10/15 12:03:02;;;;;;;3.13;1.42;;;12.20;99.90;;;;;;5089443;28;20043;-27
2023/10/15 12:05:33;;;;;;;2.33;1.10;;;12.30;99.90;;;;;;5079062;28;20075;-27
2023/10/15 12:08:00;;;;;;;2.47;0.63;;;12.40;99.90;;;;;;5085880;28;20029;-27
2023/10/15 12:10:30;;;;;;;3.88;0.55;;;12.60;99.90;;;;;;5087617;28;20040;-27
2023/10/15 12:12:56;;;;;;;3.10;0.73;;;12.80;99.90;;;;;;5089379;28;20065;-27
2023/10/15 12:15:21;;;;;;;1.55;0.50;;;13.00;99.90;;;;;;5075116;28;20037;-27
2023/10/15 12:17:48;;;;;;;3.08;0.85;;;13.40;99.90;;;;;;5084008;28;20039;-27
2023/10/15 12:20:14;;;;;;;4.47;1.13;;;14.20;99.90;;;;;;5075863;28;20036;-28
2023/10/15 12:22:39;;;;;;;2.38;0.75;;;14.80;99.90;;;;;;5081112;28;20040;-28
2023/10/15 12:25:09;;;;;;;4.25;0.95;;;15.90;99.90;;;;;;5089918;28;20040;-27
2023/10/15 12:27:36;;;;;;;2.97;0.95;;;16.80;99.90;;;;;;5083488;28;20044;-28
2023/10/15 12:30:04;;;;;;;2.65;1.05;;;17.50;99.90;;;;;;5068119;28;20055;-28
2023/10/15 12:32:31;;;;;;;2.47;0.70;;;18.00;99.90;;;;;;5077367;28;20452;-28
2023/10/15 12:34:58;;;;;;;3.10;0.77;;;18.70;99.90;;;;;;5076388;28;20061;-28
2023/10/15 12:37:24;;;;;;;1.15;0.50;;;18.40;98.50;;;;;;5073116;28;20083;-28
2023/10/15 12:39:53;;;;;;;1.33;0.52;;;18.90;97.30;;;;;;5079054;28;20136;-28
2023/10/15 12:42:19;;;;;;;0.90;0.68;;;18.90;93.60;;;;;;5081669;28;20032;-28
2023/10/15 12:44:46;;;;;;;1.17;1.00;;;18.90;90.50;;;;;;5063673;28;20300;-28
2023/10/15 12:47:13;;;;;;;2.05;0.70;;;18.70;86.40;;;;;;5080526;28;20045;-28
2023/10/15 12:49:42;;;;;;;2.25;0.80;;;18.90;87.30;;;;;;5072929;28;20055;-28
2023/10/15 12:52:08;;;;;;;1.73;0.82;;;18.70;86.50;;;;;;5077542;28;20128;-31
2023/10/15 12:54:37;;;;;;;3.05;1.08;;;19.50;86.00;;;;;;5056939;28;20048;-29
2023/10/15 12:57:04;;;;;;;2.90;1.30;;;20.20;84.40;;;;;;5079030;28;20048;-30
2023/10/15 12:59:30;;;;;;;1.77;0.70;;;20.30;80.80;;;;;;5075787;28;20052;-30
2023/10/15 13:01:56;;;;;;;1.70;0.80;;;20.00;79.30;;;;;;5086122;28;20025;-30
2023/10/15 13:04:21;;;;;;;4.72;1.05;;;20.20;79.40;;;;;;5081355;28;20033;-30
2023/10/15 13:06:48;;;;;;;4.00;1.10;;;20.60;77.30;;;;;;5086402;28;20042;-29
2023/10/15 13:09:19;;;;;;;3.80;0.75;;;21.10;77.00;;;;;;5074616;28;20034;-30
2023/10/15 13:11:48;;;;;;;2.45;0.75;;;21.30;74.90;;;;;;5049760;28;20040;-30
2023/10/15 13:14:14;;;;;;;3.05;0.90;;;20.90;72.90;;;;;;5085009;28;20028;-30
2023/10/15 13:16:39;;;;;;;3.05;1.02;;;20.70;72.80;;;;;;5072741;28;20032;-30
2023/10/15 13:19:05;;;;;;;2.38;0.73;;;19.70;72.10;;;;;;5072862;28;20043;-30
2023/10/15 13:21:31;;;;;;;2.28;0.70;;;18.10;72.10;;;;;;5084120;28;20070;-29
2023/10/15 13:23:57;;;;;;;2.83;0.60;;;17.00;74.20;;;;;;5067169;28;20390;-29
2023/10/15 13:26:24;;;;;;;2.75;0.65;;;15.70;75.40;;;;;;5085541;28;20127;-30
2023/10/15 13:28:52;;;;;;;2.72;0.70;;;14.60;78.60;;;;;;5090472;28;20387;-29
2023/10/15 13:31:57;;;;;;;1.95;0.55;;;13.90;81.20;;;;;;5088559;28;20398;-29
2023/10/15 13:34:23;;;;;;;2.17;0.80;;;13.20;83.90;;;;;;5087814;28;20499;-29
2023/10/15 13:36:49;;;;;;;2.47;0.65;;;12.60;89.20;;;;;;5095216;28;20035;-29
2023/10/15 13:39:28;;;;;;;2.33;0.68;;;12.20;92.30;;;;;;5095532;28;20040;-28
2023/10/15 13:44:23;;;;;;;2.25;0.80;;;12.40;97.10;;;;;;5100206;28;20052;-87
2023/10/15 13:46:58;;;;;;;2.88;1.00;;;13.70;98.00;;;;;;5058734;28;20128;-88
2023/10/15 13:49:29;;;;;;;2.58;0.70;;;15.20;95.50;;;;;;5077824;28;20033;-88
2023/10/15 13:51:58;;;;;;;3.50;0.70;;;16.60;93.00;;;;;;5052580;28;20037;-88